Time;durP1;ratioP1;P1;durP2;ratioP2;P2;SDS_P1;SDS_P2;PMS_P1;PMS_P2;Temp;Humidity;BMP_temperature;BMP_pressure;BME280_temperature;BME280_humidity;BME280_pressure;Samples;Min_cycle;Max_cycle;Signal;HPM_P1;HPM_P2
2021/03/26 00:01:00;;;;;;;66.25;39.03;;;154.30;1510.40;;;;;;5092373;28;20359;-70
2021/03/26 00:03:30;;;;;;;73.95;40.60;;;154.30;1510.40;;;;;;5092317;28;20077;-70
2021/03/26 00:06:18;;;;;;;69.93;39.38;;;154.30;1536.00;;;;;;5092471;28;20116;-70
2021/03/26 00:08:44;;;;;;;73.45;39.67;;;154.40;1536.00;;;;;;5092408;28;20020;-69
2021/03/26 00:11:11;;;;;;;72.53;38.78;;;154.30;1510.40;;;;;;5092281;28;20028;-71
2021/03/26 00:13:38;;;;;;;71.90;38.78;;;154.30;1536.00;;;;;;5092044;28;20032;-71
2021/03/26 00:16:04;;;;;;;70.38;39.05;;;154.30;1536.00;;;;;;5092561;28;20060;-70
2021/03/26 00:18:30;;;;;;;72.45;39.70;;;154.30;1536.00;;;;;;5092187;28;20052;-69
2021/03/26 00:20:57;;;;;;;70.90;39.88;;;154.30;1536.00;;;;;;5092323;28;20130;-70
2021/03/26 00:23:22;;;;;;;73.57;39.67;;;154.30;1536.00;;;;;;5092393;28;20032;-70
2021/03/26 00:25:48;;;;;;;68.35;38.67;;;154.30;1561.60;;;;;;5091985;28;20093;-70
2021/03/26 00:28:14;;;;;;;71.00;40.65;;;154.30;1536.00;;;;;;5090678;28;20564;-69
2021/03/26 00:30:40;;;;;;;70.05;38.10;;;179.40;1561.60;;;;;;5092077;28;20016;-68
2021/03/26 00:33:09;;;;;;;63.17;39.35;;;154.20;1536.00;;;;;;5092049;28;20076;-70
2021/03/26 00:35:36;;;;;;;66.88;39.10;;;154.10;1536.00;;;;;;5092085;28;20024;-69
2021/03/26 00:38:02;;;;;;;70.63;38.03;;;154.10;1536.00;;;;;;5092038;28;20077;-69
2021/03/26 00:40:28;;;;;;;63.38;36.75;;;154.10;1536.00;;;;;;5091646;28;20024;-68
2021/03/26 00:42:54;;;;;;;64.28;37.22;;;154.10;1561.60;;;;;;5091820;28;20040;-69
2021/03/26 00:45:25;;;;;;;66.28;37.53;;;154.10;1536.00;;;;;;5091939;28;20478;-69
2021/03/26 00:47:52;;;;;;;62.67;34.83;;;154.10;1561.60;;;;;;5091805;28;20506;-69
2021/03/26 00:50:32;;;;;;;60.83;33.85;;;154.10;1536.00;;;;;;5091735;28;20063;-70
2021/03/26 00:53:00;;;;;;;58.03;33.63;;;154.10;1536.00;;;;;;5091178;28;20484;-71
2021/03/26 00:55:26;;;;;;;57.95;33.60;;;154.20;1510.40;;;;;;5091434;28;20020;-70
2021/03/26 00:57:51;;;;;;;57.13;32.50;;;154.20;1510.40;;;;;;5091638;28;20534;-70
2021/03/26 01:00:21;;;;;;;55.72;33.58;;;154.20;1536.00;;;;;;5091547;28;20119;-72
2021/03/26 01:02:48;;;;;;;53.80;32.53;;;154.20;1536.00;;;;;;5091319;28;20035;-70
2021/03/26 01:05:20;;;;;;;55.75;32.88;;;154.20;1510.40;;;;;;5091445;28;20020;-71
2021/03/26 01:07:49;;;;;;;56.30;32.40;;;154.20;1536.00;;;;;;5091166;28;20559;-71
2021/03/26 01:10:21;;;;;;;54.00;31.33;;;154.20;1510.40;;;;;;5091257;28;20073;-72
2021/03/26 01:12:47;;;;;;;52.13;31.35;;;154.20;1536.00;;;;;;5091175;28;20028;-71
2021/03/26 01:15:15;;;;;;;53.05;32.17;;;154.20;1536.00;;;;;;5091411;28;20393;-70
2021/03/26 01:17:41;;;;;;;60.35;32.42;;;154.30;1536.00;;;;;;5091070;28;20470;-70
2021/03/26 01:20:13;;;;;;;54.15;32.15;;;154.30;1536.00;;;;;;5091305;28;20047;-72
2021/03/26 01:22:39;;;;;;;60.00;32.28;;;154.20;1536.00;;;;;;5090947;28;20504;-70
2021/03/26 01:25:14;;;;;;;56.70;31.10;;;154.20;1536.00;;;;;;5091057;28;20024;-70
2021/03/26 01:27:40;;;;;;;55.33;31.50;;;154.20;1536.00;;;;;;5091184;28;20028;-71
2021/03/26 01:30:09;;;;;;;47.67;29.92;;;154.30;1536.00;;;;;;5090974;28;20423;-71
2021/03/26 01:32:36;;;;;;;52.17;31.38;;;154.20;1536.00;;;;;;5090855;28;20478;-70
2021/03/26 01:35:03;;;;;;;54.25;31.55;;;154.40;1536.00;;;;;;5091147;28;20036;-69
2021/03/26 01:37:28;;;;;;;50.92;30.13;;;154.20;1536.00;;;;;;5090805;28;20028;-70
2021/03/26 01:39:54;;;;;;;49.55;29.60;;;154.20;1536.00;;;;;;5090846;28;20035;-71
2021/03/26 01:42:30;;;;;;;49.33;30.63;;;154.20;1536.00;;;;;;5091080;28;20118;-70
2021/03/26 01:44:57;;;;;;;53.97;30.77;;;154.10;1536.00;;;;;;5090882;28;20035;-69
2021/03/26 01:47:22;;;;;;;57.92;31.25;;;154.20;1536.00;;;;;;5091103;28;20467;-70
2021/03/26 01:49:48;;;;;;;50.20;30.25;;;154.20;1510.40;;;;;;5090712;28;20042;-70
2021/03/26 01:52:14;;;;;;;57.65;32.25;;;154.20;1536.00;;;;;;5091114;28;20729;-70
2021/03/26 01:54:40;;;;;;;56.17;33.22;;;154.20;1536.00;;;;;;5091027;28;20474;-70
2021/03/26 01:57:06;;;;;;;56.42;33.05;;;154.20;1536.00;;;;;;5090451;28;20024;-69
2021/03/26 01:59:32;;;;;;;60.72;33.63;;;154.20;1536.00;;;;;;5090716;28;20059;-69
2021/03/26 02:02:01;;;;;;;64.15;35.88;;;154.10;1536.00;;;;;;5090383;28;20493;-69
2021/03/26 02:04:35;;;;;;;60.97;35.92;;;154.10;1561.60;;;;;;5092148;28;20421;-70
2021/03/26 02:07:03;;;;;;;63.63;35.65;;;154.10;1561.60;;;;;;5094770;28;20036;-69
2021/03/26 02:09:32;;;;;;;60.30;35.85;;;154.10;1561.60;;;;;;5094559;28;20070;-70
2021/03/26 02:12:04;;;;;;;56.83;34.67;;;154.00;1561.60;;;;;;5094610;28;20020;-68
2021/03/26 02:14:52;;;;;;;60.50;36.17;;;154.00;1587.20;;;;;;5094947;28;20028;-69
2021/03/26 02:17:21;;;;;;;63.15;36.13;;;153.90;1587.20;;;;;;5094213;28;20040;-69
2021/03/26 02:20:15;;;;;;;64.68;37.75;;;153.90;1587.20;;;;;;5094432;28;20069;-70
2021/03/26 02:22:41;;;;;;;87.30;43.83;;;153.80;1612.80;;;;;;5094683;28;20039;-69
2021/03/26 02:25:17;;;;;;;96.25;44.15;;;153.80;1612.80;;;;;;5094322;28;20032;-70
2021/03/26 02:27:42;;;;;;;86.35;44.00;;;153.70;1638.40;;;;;;5094552;28;20504;-70
2021/03/26 02:30:19;;;;;;;89.63;43.70;;;153.60;1638.40;;;;;;5094317;28;20024;-69
2021/03/26 02:32:46;;;;;;;89.10;43.95;;;128.90;1638.40;;;;;;5094508;28;20020;-69
2021/03/26 02:35:36;;;;;;;89.60;45.05;;;128.90;1664.00;;;;;;5094575;28;20043;-70
2021/03/26 02:38:08;;;;;;;95.63;47.40;;;128.80;1689.60;;;;;;5094382;28;20458;-69
2021/03/26 02:40:36;;;;;;;103.40;55.97;;;128.80;1689.60;;;;;;5094409;28;20111;-70
2021/03/26 02:43:32;;;;;;;82.05;44.25;;;128.70;1689.60;;;;;;5094002;28;20040;-70
2021/03/26 02:46:15;;;;;;;85.50;42.92;;;128.70;1689.60;;;;;;5094076;28;20028;-69
2021/03/26 02:49:03;;;;;;;71.03;40.95;;;128.70;1689.60;;;;;;5094193;28;20028;-70
2021/03/26 02:51:38;;;;;;;69.05;38.72;;;128.70;1715.20;;;;;;5094128;28;20374;-70
2021/03/26 02:54:10;;;;;;;69.18;39.15;;;128.70;1715.20;;;;;;5094067;28;20541;-70
2021/03/26 02:56:45;;;;;;;68.18;39.83;;;128.70;1715.20;;;;;;5093735;28;20047;-71
2021/03/26 02:59:21;;;;;;;79.28;45.80;;;128.70;1715.20;;;;;;5093898;28;20075;-70
2021/03/26 03:01:56;;;;;;;105.22;54.63;;;128.70;1715.20;;;;;;5093866;28;20103;-67
2021/03/26 03:04:41;;;;;;;78.03;45.20;;;128.40;1740.80;;;;;;5093811;28;20028;-68
2021/03/26 03:07:40;;;;;;;74.43;43.92;;;128.30;1766.40;;;;;;5093705;28;20516;-68
2021/03/26 03:10:44;;;;;;;73.57;42.83;;;128.20;1766.40;;;;;;5011202;28;20109;-69
2021/03/26 03:13:20;;;;;;;71.60;43.15;;;128.20;1740.80;;;;;;5010788;28;20164;-68
2021/03/26 03:16:08;;;;;;;82.22;45.63;;;128.20;1766.40;;;;;;5010979;28;20022;-69
2021/03/26 03:18:41;;;;;;;74.03;41.90;;;128.10;1766.40;;;;;;4931743;29;20055;-70
2021/03/26 03:21:25;;;;;;;76.18;43.15;;;128.00;1766.40;;;;;;4933842;29;20506;-69
2021/03/26 03:24:08;;;;;;;71.20;41.13;;;128.00;1766.40;;;;;;4933935;29;20534;-70
2021/03/26 03:26:38;;;;;;;78.72;45.70;;;128.00;1792.00;;;;;;4933765;29;20043;-70
2021/03/26 03:29:10;;;;;;;77.10;43.65;;;128.00;1792.00;;;;;;4933862;29;20527;-70
2021/03/26 03:31:59;;;;;;;82.22;45.83;;;103.30;1766.40;;;;;;4933764;29;20024;-69
2021/03/26 03:34:28;;;;;;;81.03;44.90;;;103.30;1766.40;;;;;;4914275;29;20064;-71
2021/03/26 03:37:04;;;;;;;81.47;47.65;;;103.30;1766.40;;;;;;4914645;29;20110;-71
2021/03/26 03:39:46;;;;;;;97.63;52.53;;;103.30;1792.00;;;;;;4914594;29;20047;-70
2021/03/26 03:42:40;;;;;;;83.30;46.38;;;128.00;1792.00;;;;;;4914583;29;20100;-71
2021/03/26 03:45:18;;;;;;;85.90;46.47;;;103.30;1792.00;;;;;;4914302;29;20067;-71
2021/03/26 03:48:07;;;;;;;80.82;47.95;;;103.20;1792.00;;;;;;4972044;28;20031;-71
2021/03/26 03:50:39;;;;;;;85.13;47.33;;;103.10;1817.60;;;;;;4971858;28;20127;-70
2021/03/26 03:53:09;;;;;;;80.78;46.38;;;103.10;1817.60;;;;;;4971684;28;20458;-71
2021/03/26 03:55:45;;;;;;;81.18;45.85;;;103.00;1843.20;;;;;;4999107;28;20561;-70
2021/03/26 03:58:45;;;;;;;77.38;44.60;;;102.80;1843.20;;;;;;5030523;28;20109;-70
2021/03/26 04:01:20;;;;;;;87.95;48.83;;;102.90;1843.20;;;;;;4952236;29;20192;-70
2021/03/26 04:03:56;;;;;;;83.45;47.75;;;103.00;1817.60;;;;;;4951986;29;20035;-70
2021/03/26 04:06:42;;;;;;;92.80;50.15;;;103.00;1817.60;;;;;;4952137;29;20114;-68
2021/03/26 04:09:14;;;;;;;88.80;48.30;;;102.90;1843.20;;;;;;4935741;29;20110;-68
2021/03/26 04:11:46;;;;;;;81.10;45.40;;;102.80;1843.20;;;;;;4984814;28;20124;-68
2021/03/26 04:14:34;;;;;;;79.30;45.38;;;102.90;1843.20;;;;;;5010291;28;20025;-69
2021/03/26 04:17:24;;;;;;;78.47;44.63;;;102.90;1817.60;;;;;;5010432;28;20038;-70
2021/03/26 04:19:56;;;;;;;85.55;45.25;;;102.90;1817.60;;;;;;5010239;28;20046;-69
2021/03/26 04:22:29;;;;;;;86.20;45.58;;;102.90;1817.60;;;;;;5010547;28;20041;-70
2021/03/26 04:25:28;;;;;;;77.93;44.70;;;102.80;1843.20;;;;;;5010340;28;20034;-70
2021/03/26 04:28:24;;;;;;;76.22;42.38;;;102.80;1843.20;;;;;;4932196;29;20039;-70
2021/03/26 04:30:56;;;;;;;74.50;45.10;;;102.80;1843.20;;;;;;4931775;29;20036;-69
2021/03/26 04:33:22;;;;;;;82.07;48.10;;;102.80;1843.20;;;;;;4932800;29;20389;-70
2021/03/26 04:35:50;;;;;;;93.68;54.88;;;102.80;1817.60;;;;;;4932364;29;20046;-69
2021/03/26 04:38:27;;;;;;;95.20;57.28;;;102.80;1843.20;;;;;;4977922;28;20038;-70
2021/03/26 04:41:13;;;;;;;95.60;56.83;;;102.80;1843.20;;;;;;4990357;28;20069;-70
2021/03/26 04:43:59;;;;;;;90.50;51.97;;;102.80;1843.20;;;;;;4989881;28;20038;-68
2021/03/26 04:46:36;;;;;;;94.13;53.15;;;102.80;1843.20;;;;;;4990247;28;20038;-70
2021/03/26 04:49:08;;;;;;;93.20;52.83;;;102.70;1868.80;;;;;;4990286;28;20027;-70
2021/03/26 04:51:34;;;;;;;86.78;50.00;;;102.60;1868.80;;;;;;4990182;28;20034;-69
2021/03/26 04:54:17;;;;;;;90.40;50.13;;;102.60;1868.80;;;;;;4990004;28;20432;-68
2021/03/26 04:56:56;;;;;;;100.18;54.35;;;102.60;1894.40;;;;;;4989982;28;20034;-70
2021/03/26 04:59:40;;;;;;;91.65;51.42;;;102.50;1894.40;;;;;;4990101;28;20538;-69
2021/03/26 05:02:10;;;;;;;88.30;49.42;;;102.50;1894.40;;;;;;4989848;28;20022;-70
2021/03/26 05:04:41;;;;;;;90.00;50.27;;;102.50;1894.40;;;;;;5057311;28;20040;-71
2021/03/26 05:07:27;;;;;;;93.30;50.97;;;102.50;1894.40;;;;;;5091296;28;20260;-69
2021/03/26 05:09:55;;;;;;;101.95;55.65;;;102.60;1894.40;;;;;;5091452;28;20044;-69
2021/03/26 05:12:26;;;;;;;94.18;53.00;;;102.60;1894.40;;;;;;5091547;28;20101;-72
2021/03/26 05:15:05;;;;;;;97.22;52.15;;;102.60;1894.40;;;;;;5091295;28;20024;-71
2021/03/26 05:17:50;;;;;;;136.43;84.38;;;102.70;1894.40;;;;;;5091048;28;20085;-71
2021/03/26 05:20:19;;;;;;;102.68;57.67;;;102.70;1894.40;;;;;;5091176;28;20024;-71
2021/03/26 05:23:14;;;;;;;99.93;59.80;;;102.80;1868.80;;;;;;5091220;28;20115;-71
2021/03/26 05:25:44;;;;;;;109.25;62.45;;;102.80;1868.80;;;;;;5091225;28;20055;-70
2021/03/26 05:28:26;;;;;;;102.82;59.40;;;102.80;1894.40;;;;;;5091058;28;20478;-71
2021/03/26 05:30:53;;;;;;;93.65;54.90;;;102.80;1868.80;;;;;;5091314;28;20032;-70
2021/03/26 05:33:42;;;;;;;126.72;62.13;;;102.90;1868.80;;;;;;5090908;28;20073;-71
2021/03/26 05:36:19;;;;;;;120.80;62.13;;;103.00;1868.80;;;;;;5090858;28;20028;-73
2021/03/26 05:38:51;;;;;;;112.28;62.42;;;103.00;1868.80;;;;;;5090852;28;20409;-72
2021/03/26 05:41:26;;;;;;;118.95;63.17;;;103.10;1868.80;;;;;;5090771;28;20020;-71
2021/03/26 05:44:34;;;;;;;108.88;60.47;;;103.20;1843.20;;;;;;5090780;28;20074;-72
2021/03/26 05:47:08;;;;;;;117.88;63.40;;;103.30;1843.20;;;;;;5089057;28;20028;-71
2021/03/26 05:49:37;;;;;;;121.38;65.07;;;128.00;1868.80;;;;;;5090902;28;20377;-70
2021/03/26 05:52:21;;;;;;;128.60;68.25;;;128.00;1868.80;;;;;;5091061;28;20099;-71
2021/03/26 05:55:13;;;;;;;137.57;69.85;;;128.10;1868.80;;;;;;5090543;28;20020;-70
2021/03/26 05:57:54;;;;;;;136.48;69.90;;;128.10;1868.80;;;;;;5090563;28;20024;-72
2021/03/26 06:00:38;;;;;;;129.23;66.00;;;128.20;1843.20;;;;;;5090813;28;20216;-70
2021/03/26 06:03:28;;;;;;;126.43;65.72;;;128.30;1843.20;;;;;;5090711;28;20050;-71
2021/03/26 06:06:15;;;;;;;136.07;71.63;;;128.50;1843.20;;;;;;5090612;28;20023;-71
2021/03/26 06:08:59;;;;;;;151.05;79.85;;;128.60;1817.60;;;;;;5090670;28;20021;-71
2021/03/26 06:12:02;;;;;;;142.25;78.13;;;128.70;1817.60;;;;;;5090477;28;20440;-72
2021/03/26 06:14:54;;;;;;;155.45;81.38;;;128.70;1817.60;;;;;;5090205;28;20020;-71
2021/03/26 06:18:01;;;;;;;158.02;86.15;;;128.70;1792.00;;;;;;5090440;28;20039;-70
2021/03/26 06:21:04;;;;;;;137.27;73.53;;;128.70;1766.40;;;;;;5090483;28;20020;-71
2021/03/26 06:23:57;;;;;;;113.50;65.47;;;128.70;1766.40;;;;;;5090838;28;20386;-72
2021/03/26 06:26:42;;;;;;;112.90;63.88;;;128.80;1766.40;;;;;;5090604;28;20493;-72
2021/03/26 06:29:35;;;;;;;104.75;63.10;;;128.80;1766.40;;;;;;5090355;28;20081;-73
2021/03/26 06:32:38;;;;;;;100.70;60.25;;;128.90;1766.40;;;;;;5089327;28;20023;-72
2021/03/26 06:35:25;;;;;;;95.07;58.15;;;153.60;1740.80;;;;;;5090382;28;20032;-72
2021/03/26 06:38:14;;;;;;;83.43;49.72;;;153.60;1740.80;;;;;;5090420;28;20016;-71
2021/03/26 06:40:58;;;;;;;76.03;47.45;;;153.70;1740.80;;;;;;5090256;28;20038;-71
2021/03/26 06:43:45;;;;;;;76.53;47.65;;;153.80;1740.80;;;;;;5089967;28;20036;-71
2021/03/26 06:46:48;;;;;;;79.13;47.05;;;153.90;1740.80;;;;;;5090376;28;20027;-73
2021/03/26 06:49:36;;;;;;;78.05;47.38;;;153.90;1715.20;;;;;;5090384;28;20042;-71
2021/03/26 06:52:20;;;;;;;70.95;43.08;;;153.90;1715.20;;;;;;5093986;28;20035;-72
2021/03/26 06:54:54;;;;;;;73.15;44.08;;;154.10;1715.20;;;;;;5093822;28;20020;-70
2021/03/26 06:57:57;;;;;;;81.85;47.47;;;154.10;1715.20;;;;;;5093881;28;20062;-70
2021/03/26 07:00:31;;;;;;;73.15;44.58;;;154.20;1715.20;;;;;;5093903;28;20064;-71
2021/03/26 07:03:19;;;;;;;73.07;43.78;;;154.30;1715.20;;;;;;5093507;28;20052;-72
2021/03/26 07:06:06;;;;;;;63.20;41.35;;;154.30;1689.60;;;;;;5093705;28;20031;-71
2021/03/26 07:08:53;;;;;;;76.43;46.15;;;154.40;1689.60;;;;;;5093888;28;20031;-72
2021/03/26 07:11:43;;;;;;;79.25;46.00;;;154.50;1715.20;;;;;;5091968;28;20036;-71
2021/03/26 07:14:37;;;;;;;70.97;44.95;;;179.20;1715.20;;;;;;5093534;28;20035;-72
2021/03/26 07:17:21;;;;;;;158.10;98.80;;;179.30;1689.60;;;;;;5093516;28;20076;-72
2021/03/26 07:19:50;;;;;;;153.18;103.15;;;179.40;1689.60;;;;;;5053049;28;20104;-73
2021/03/26 07:22:40;;;;;;;91.10;58.83;;;179.50;1664.00;;;;;;5053071;28;20467;-73
2021/03/26 07:25:32;;;;;;;80.30;50.60;;;179.70;1664.00;;;;;;5053147;28;20115;-71
2021/03/26 07:28:27;;;;;;;71.40;45.72;;;179.80;1664.00;;;;;;5053157;28;20098;-70
2021/03/26 07:31:30;;;;;;;91.20;57.40;;;179.90;1664.00;;;;;;5053206;28;20029;-72
2021/03/26 07:34:17;;;;;;;73.43;46.42;;;180.00;1638.40;;;;;;5052890;28;20025;-73
2021/03/26 07:37:15;;;;;;;74.90;44.13;;;180.10;1612.80;;;;;;5052997;28;20430;-73
2021/03/26 07:40:14;;;;;;;85.00;53.53;;;204.80;1612.80;;;;;;5011220;28;20116;-71
2021/03/26 07:42:56;;;;;;;79.63;49.38;;;204.90;1638.40;;;;;;5010493;28;20492;-71
2021/03/26 07:45:45;;;;;;;70.90;44.40;;;205.00;1612.80;;;;;;5007830;28;20547;-70
2021/03/26 07:48:39;;;;;;;71.68;42.42;;;205.10;1587.20;;;;;;5001327;28;20097;-70
2021/03/26 07:51:16;;;;;;;70.53;42.35;;;205.20;1561.60;;;;;;4988468;28;20033;-70
2021/03/26 07:54:18;;;;;;;68.40;42.05;;;205.30;1510.40;;;;;;4998833;28;20064;-70
2021/03/26 07:57:17;;;;;;;67.40;42.60;;;205.40;1510.40;;;;;;5000849;28;20026;-70
2021/03/26 08:00:05;;;;;;;77.20;44.85;;;205.50;1510.40;;;;;;5001184;28;20038;-69
2021/03/26 08:02:56;;;;;;;96.85;56.97;;;205.60;1484.80;;;;;;4998707;28;20487;-74
2021/03/26 08:05:49;;;;;;;84.95;51.03;;;205.70;1484.80;;;;;;4990591;28;20229;-69
2021/03/26 08:08:32;;;;;;;100.90;58.80;;;230.40;1484.80;;;;;;5001068;28;20029;-71
2021/03/26 08:11:16;;;;;;;87.18;52.90;;;230.60;1510.40;;;;;;5001309;28;20113;-70
2021/03/26 08:14:20;;;;;;;292.17;147.15;;;230.70;1510.40;;;;;;5001362;28;20050;-71
2021/03/26 08:16:58;;;;;;;249.70;142.20;;;230.80;1459.20;;;;;;4942285;28;20082;-71
2021/03/26 08:19:45;;;;;;;65.65;40.50;;;230.90;1433.60;;;;;;5007520;28;20107;-71
2021/03/26 08:22:30;;;;;;;63.65;39.45;;;231.00;1356.80;;;;;;5009288;28;20038;-70
2021/03/26 08:25:52;;;;;;;65.75;41.08;;;231.10;1356.80;;;;;;5008937;28;20038;-69
2021/03/26 08:28:38;;;;;;;68.28;38.47;;;231.30;1356.80;;;;;;4968722;28;20097;-69
2021/03/26 08:31:19;;;;;;;67.50;40.10;;;256.10;1331.20;;;;;;4966650;28;20070;-70
2021/03/26 08:34:02;;;;;;;59.67;38.03;;;256.20;1331.20;;;;;;4970101;28;20031;-70
2021/03/26 08:36:39;;;;;;;56.67;37.03;;;256.20;1305.60;;;;;;4967063;28;20026;-69
2021/03/26 08:39:39;;;;;;;135.88;87.70;;;256.30;1305.60;;;;;;4969799;28;21099;-69
2021/03/26 08:42:23;;;;;;;60.83;39.45;;;256.40;1305.60;;;;;;4969195;28;20019;-70
2021/03/26 08:44:58;;;;;;;62.03;40.20;;;256.50;1280.00;;;;;;4966751;28;20812;-68
2021/03/26 08:47:41;;;;;;;64.30;43.40;;;256.80;1331.20;;;;;;4969458;28;20047;-70
2021/03/26 08:50:21;;;;;;;64.15;38.83;;;281.60;1331.20;;;;;;4969340;28;20058;-71
2021/03/26 08:53:13;;;;;;;52.85;34.78;;;281.80;1305.60;;;;;;4987334;28;20029;-70
2021/03/26 08:55:41;;;;;;;39.35;26.90;;;282.00;1228.80;;;;;;5053012;28;20029;-70
2021/03/26 08:58:27;;;;;;;56.72;34.75;;;281.90;1203.20;;;;;;5061686;28;20036;-72
2021/03/26 09:01:20;;;;;;;36.75;21.52;;;281.90;1177.60;;;;;;5080004;28;20390;-72
2021/03/26 09:03:46;;;;;;;30.63;19.30;;;282.10;1152.00;;;;;;5081280;28;20107;-71
2021/03/26 09:06:47;;;;;;;27.02;18.08;;;282.30;1126.40;;;;;;5079999;28;20099;-72
2021/03/26 09:09:41;;;;;;;39.97;22.20;;;282.30;1075.20;;;;;;5079781;28;20022;-71
2021/03/26 09:12:16;;;;;;;32.17;19.00;;;282.50;1100.80;;;;;;4999205;28;20117;-71
2021/03/26 09:15:23;;;;;;;25.42;16.15;;;307.20;1075.20;;;;;;4998298;28;20018;-71
2021/03/26 09:18:00;;;;;;;82.20;39.33;;;307.20;1049.60;;;;;;4908901;29;20092;-70
2021/03/26 09:20:36;;;;;;;84.15;42.58;;;307.30;1100.80;;;;;;4911880;29;20036;-70
2021/03/26 09:23:29;;;;;;;191.43;92.57;;;307.40;1100.80;;;;;;4911663;29;20040;-71
2021/03/26 09:26:36;;;;;;;43.13;25.42;;;307.50;1024.00;;;;;;4911766;29;20103;-72
2021/03/26 09:29:12;;;;;;;24.73;15.68;;;307.60;998.40;;;;;;4884594;29;20040;-71
2021/03/26 09:31:45;;;;;;;18.30;12.13;;;307.70;972.80;;;;;;4911276;29;20031;-71
2021/03/26 09:34:44;;;;;;;17.40;12.32;;;307.80;921.60;;;;;;4911611;29;20156;-71
2021/03/26 09:37:17;;;;;;;20.02;12.15;;;307.90;896.00;;;;;;4818537;29;20511;-70
2021/03/26 09:39:46;;;;;;;18.13;11.57;;;308.00;947.20;;;;;;4819074;29;20038;-72
2021/03/26 09:42:41;;;;;;;22.65;15.02;;;308.00;896.00;;;;;;4818906;29;20530;-72
2021/03/26 09:45:45;;;;;;;27.85;16.17;;;308.00;921.60;;;;;;4817906;29;20050;-71
2021/03/26 09:48:38;;;;;;;24.40;14.20;;;308.10;896.00;;;;;;4829680;29;20083;-72
2021/03/26 09:51:18;;;;;;;46.53;24.10;;;308.10;921.60;;;;;;4912625;29;20035;-72
2021/03/26 09:53:45;;;;;;;27.23;15.67;;;332.80;947.20;;;;;;4922423;28;20153;-72
2021/03/26 09:56:25;;;;;;;34.42;18.85;;;332.80;947.20;;;;;;4969836;28;20039;-72
2021/03/26 09:59:26;;;;;;;41.60;26.38;;;332.90;998.40;;;;;;4969799;28;20033;-72
2021/03/26 10:02:11;;;;;;;29.98;18.17;;;333.00;1024.00;;;;;;4931385;29;20040;-72
2021/03/26 10:05:03;;;;;;;27.33;17.88;;;333.00;947.20;;;;;;4930963;29;20046;-73
2021/03/26 10:07:45;;;;;;;22.70;15.05;;;333.00;921.60;;;;;;4931085;29;20036;-71
2021/03/26 10:13:11;;;;;;;44.72;26.98;;;333.10;921.60;;;;;;4952538;28;20369;-72
2021/03/26 10:15:43;;;;;;;65.95;38.70;;;333.20;998.40;;;;;;5008382;28;20041;-72
2021/03/26 10:18:24;;;;;;;37.38;25.15;;;333.30;947.20;;;;;;5008089;28;20069;-73
2021/03/26 10:20:51;;;;;;;;;;;333.40;1024.00;;;;;;5009016;28;20030;-73
2021/03/26 10:23:25;;;;;;;22.42;14.95;;;333.50;998.40;;;;;;5008266;28;19917;-72
2021/03/26 10:26:16;;;;;;;27.25;18.55;;;333.50;998.40;;;;;;5010612;28;20064;-74
2021/03/26 10:28:42;;;;;;;25.83;19.65;;;333.60;998.40;;;;;;5012572;28;20113;-71
2021/03/26 10:31:11;;;;;;;24.17;17.35;;;333.70;921.60;;;;;;5012218;28;20137;-72
2021/03/26 10:33:47;;;;;;;28.40;19.63;;;333.70;947.20;;;;;;5012297;28;20419;-73
2021/03/26 10:36:22;;;;;;;32.33;20.67;;;358.40;896.00;;;;;;5012456;28;20022;-73
2021/03/26 10:38:53;;;;;;;21.00;14.77;;;358.40;896.00;;;;;;5059443;28;20127;-72
2021/03/26 10:41:28;;;;;;;;;;;358.50;896.00;;;;;;5074193;28;20538;-72
2021/03/26 10:44:32;;;;;;;23.60;14.82;;;358.50;870.40;;;;;;5073858;28;19912;-71
2021/03/26 10:47:25;;;;;;;22.33;14.15;;;358.40;870.40;;;;;;5078288;28;20037;-72
2021/03/26 10:49:59;;;;;;;26.85;18.92;;;358.50;870.40;;;;;;5084177;28;20028;-73
2021/03/26 10:52:39;;;;;;;19.48;14.32;;;358.50;844.80;;;;;;5082958;28;20017;-71
2021/03/26 10:55:13;;;;;;;18.70;13.98;;;358.60;844.80;;;;;;5083154;28;20020;-71
2021/03/26 10:57:57;;;;;;;19.02;14.30;;;358.50;844.80;;;;;;5082114;28;20021;-72
2021/03/26 11:00:41;;;;;;;20.08;14.43;;;358.60;896.00;;;;;;5082204;28;20381;-73
2021/03/26 11:03:29;;;;;;;22.33;14.43;;;358.60;844.80;;;;;;5083031;28;20044;-72
2021/03/26 11:06:12;;;;;;;19.00;12.57;;;358.60;819.20;;;;;;5083448;28;20016;-74
2021/03/26 11:08:41;;;;;;;17.67;13.25;;;358.70;870.40;;;;;;5081173;28;20042;-72
2021/03/26 11:11:10;;;;;;;21.30;15.45;;;358.80;921.60;;;;;;5081973;28;20020;-72
2021/03/26 11:13:53;;;;;;;17.58;12.55;;;359.00;819.20;;;;;;5083528;28;20489;-72
2021/03/26 11:16:21;;;;;;;18.33;13.45;;;359.00;793.60;;;;;;5081262;28;20103;-72
2021/03/26 11:18:47;;;;;;;19.00;14.48;;;359.00;768.00;;;;;;5081649;28;20063;-72
2021/03/26 11:21:19;;;;;;;19.90;14.90;;;359.00;844.80;;;;;;5083295;28;20470;-72
2021/03/26 11:24:03;;;;;;;19.65;13.75;;;359.10;870.40;;;;;;5081723;28;20077;-73
2021/03/26 11:26:53;;;;;;;22.33;14.40;;;359.20;793.60;;;;;;5089098;28;20091;-75
2021/03/26 11:29:29;;;;;;;23.90;15.80;;;359.20;819.20;;;;;;5093509;28;20054;-71
2021/03/26 11:32:08;;;;;;;21.65;14.82;;;359.30;819.20;;;;;;5093284;28;20024;-72
2021/03/26 11:34:34;;;;;;;27.15;17.98;;;384.00;844.80;;;;;;5093420;28;20816;-72
2021/03/26 11:37:35;;;;;;;21.42;16.05;;;384.10;844.80;;;;;;5093212;28;20485;-71
2021/03/26 11:40:30;;;;;;;17.80;13.43;;;384.20;870.40;;;;;;5059269;28;20111;-72
2021/03/26 11:43:22;;;;;;;19.95;13.13;;;384.40;870.40;;;;;;5040236;28;20080;-72
2021/03/26 11:45:54;;;;;;;16.33;13.15;;;384.50;870.40;;;;;;5041139;28;20029;-71
2021/03/26 11:48:34;;;;;;;18.40;13.40;;;384.70;819.20;;;;;;5040675;28;20029;-73
2021/03/26 11:51:38;;;;;;;23.23;16.25;;;384.70;844.80;;;;;;5041312;28;20029;-73
2021/03/26 11:54:21;;;;;;;23.08;16.02;;;384.90;844.80;;;;;;4968483;28;20059;-73
2021/03/26 11:57:12;;;;;;;21.55;14.00;;;409.60;870.40;;;;;;4970477;28;20031;-73
2021/03/26 12:00:03;;;;;;;17.95;13.25;;;384.90;768.00;;;;;;4963649;28;20038;-71
2021/03/26 12:02:57;;;;;;;19.70;13.03;;;384.90;716.80;;;;;;4969022;28;20122;-71
2021/03/26 12:05:37;;;;;;;21.05;13.73;;;384.90;768.00;;;;;;4968366;28;20301;-69
2021/03/26 12:08:16;;;;;;;19.77;13.30;;;409.60;768.00;;;;;;4968589;28;20648;-71
2021/03/26 12:11:02;;;;;;;25.52;17.70;;;409.60;742.40;;;;;;4969983;28;20045;-70
2021/03/26 12:13:47;;;;;;;20.38;15.32;;;409.60;768.00;;;;;;4963493;28;20045;-71
2021/03/26 12:16:29;;;;;;;23.05;16.20;;;409.70;768.00;;;;;;4969272;28;20070;-70
2021/03/26 12:19:02;;;;;;;26.20;18.45;;;409.70;742.40;;;;;;4985912;28;20050;-71
2021/03/26 12:21:49;;;;;;;38.33;24.65;;;409.80;768.00;;;;;;5018841;28;20021;-71
2021/03/26 12:24:32;;;;;;;21.98;14.90;;;409.80;742.40;;;;;;5019594;28;20042;-72
2021/03/26 12:27:18;;;;;;;26.30;17.10;;;409.90;819.20;;;;;;5017827;28;20057;-72
2021/03/26 12:29:56;;;;;;;19.98;14.55;;;410.00;768.00;;;;;;5022860;28;20028;-71
2021/03/26 12:32:40;;;;;;;21.52;14.82;;;410.10;793.60;;;;;;5080447;28;20024;-72
2021/03/26 12:35:24;;;;;;;25.02;16.92;;;410.20;793.60;;;;;;5081044;28;20023;-73
2021/03/26 12:37:53;;;;;;;16.77;13.63;;;410.40;819.20;;;;;;5081907;28;20025;-72
2021/03/26 12:40:49;;;;;;;21.13;14.90;;;410.40;742.40;;;;;;5079390;28;20382;-73
2021/03/26 12:43:30;;;;;;;18.55;14.07;;;435.40;793.60;;;;;;5081425;28;20115;-71
2021/03/26 12:46:06;;;;;;;17.55;13.45;;;435.90;716.80;;;;;;5081172;28;20028;-71
2021/03/26 12:48:52;;;;;;;19.38;13.60;;;461.00;742.40;;;;;;5080979;28;20020;-75
2021/03/26 12:51:32;;;;;;;18.58;15.32;;;461.00;665.60;;;;;;5080185;28;20107;-72
2021/03/26 12:54:35;;;;;;;19.75;15.02;;;460.90;665.60;;;;;;5081113;28;20069;-71
2021/03/26 12:57:08;;;;;;;19.75;13.48;;;460.90;691.20;;;;;;5062054;28;20390;-71
2021/03/26 13:00:04;;;;;;;19.17;13.57;;;460.80;691.20;;;;;;5081732;28;20028;-72
2021/03/26 13:02:40;;;;;;;17.63;13.05;;;460.80;665.60;;;;;;5075178;28;20046;-71
2021/03/26 13:05:09;;;;;;;18.75;13.27;;;436.10;665.60;;;;;;5080313;28;20466;-72
2021/03/26 13:07:53;;;;;;;18.98;14.95;;;460.90;742.40;;;;;;5078781;28;20038;-71